Etusivu
METAR-TAF:

METAR-TAF

Lentoasemat :

Jimmy Lake, Saskatchewan, Kanada

Leveyspiiri: 54-55N, Pituuspiiri: 109-57W, korkeus merenpinnasta: 658 m

Tämänhetkinen sää

Tämä raportti tehtiin 49 minuuttia sitten, kello 13.00 UTC
Tuuli 8 kn lännestä, vaihdellen lännen/lounaan ja luoteen välillä
Lämpötila 2°C
Kosteus 51%
Ilmanpaine 1018 hPa
Näkyvyys: 14.5 km
selkeää

METAR: CWHN 251300Z AUTO 28008KT 250V320 9SM CLR 02/M07 A3005 RMK SLP205

Aika: 07:49 (13:49 UTC)


TAF: puuttuu

Säähavainnot ja -ennusteet yli 4000 lentoasemalta (METAR- ja TAF-raportit).

Käytössä olevat sääasemat on merkitty karttaan keltaisilla ja punaisilla pisteillä.

Aseta hiiri pisteen päälle nähdäksesi sääaseman nimen.

Klikkaa sitten nähdäksesi säähavainnot ja -ennusteet.

Kartan vaihtaminen: klikkaa mustalla rastilla varustettuja vihreitä pisteitä, niin voit zoomata sisään; viivalla varustettua vihreää pistettä, niin voit zoomata ulos tai vihreitä nuolia, niin pääset viereisille kartoille.


METAR-TAF: